Terminal Aerodrome Forecast
Issued by NWS

Home | Current Version | Previous Version | Text Only | Print | Product List | Glossary On
Versions: 1 2 3 4 5 6 7 8 9 10 11 12 13 14 15 16 17 18 19 20 21 22 23 24 25 26 27 28 29 30 31 32 33 34 35 36 37 38 39 40 41 42 43 44 45 46 47 48 49 50
000
FTUS45 KBOU 260529
TAFAPA
TAF
KAPA 260529Z 2606/2706 20009KT P6SM FEW120 SCT200
     FM261400 VRB05KT P6SM FEW120 SCT200
     FM261600 03010KT P6SM FEW100 SCT220
     FM262000 08009KT P6SM SCT080 BKN120
      TEMPO 2621/2701 VRB20G35KT -TSRA BKN070CB
     FM270200 17011KT P6SM SCT080 BKN120
     FM270400 21010KT P6SM FEW120 BKN200=

USA.gov is the U.S. government's official web portal to all federal, state and local government web resources and services.